Time;durP1;ratioP1;P1;durP2;ratioP2;P2;SDS_P1;SDS_P2;PMS_P1;PMS_P2;Temp;Humidity;BMP_temperature;BMP_pressure;BME280_temperature;BME280_humidity;BME280_pressure;Samples;Min_cycle;Max_cycle;Signal;HPM_P1;HPM_P2
2022/11/18 00:02:04;;;;;;;;;;;17.20;56.90;;;;;;5075499;28;19920;-81
2022/11/18 00:04:29;;;;;;;;;;;17.30;57.00;;;;;;5075607;28;20288;-80
2022/11/18 00:06:55;;;;;;;;;;;17.20;56.90;;;;;;5075454;28;20386;-81
2022/11/18 00:09:21;;;;;;;;;;;17.20;56.90;;;;;;5075185;28;20382;-82
2022/11/18 00:14:31;;;;;;;;;;;17.20;56.90;;;;;;5075294;28;19986;-81
2022/11/18 00:16:59;;;;;;;;;;;17.20;56.90;;;;;;5072923;28;19925;-80
2022/11/18 00:19:27;;;;;;;;;;;17.20;56.90;;;;;;5075595;28;19946;-80
2022/11/18 00:21:53;;;;;;;;;;;17.20;56.90;;;;;;5093093;28;19927;-80
2022/11/18 00:24:19;;;;;;;;;;;17.20;56.90;;;;;;5093332;28;19920;-80
2022/11/18 00:26:45;;;;;;;;;;;17.20;56.90;;;;;;5075016;28;19923;-80
2022/11/18 00:29:11;;;;;;;;;;;17.20;56.90;;;;;;5075263;28;19928;-80
2022/11/18 00:31:37;;;;;;;;;;;17.20;57.00;;;;;;5075081;28;20330;-80
2022/11/18 00:34:02;;;;;;;;;;;17.20;56.90;;;;;;5074809;28;19942;-80
2022/11/18 00:36:28;;;;;;;;;;;17.10;56.90;;;;;;5074615;28;19931;-73
2022/11/18 00:38:53;;;;;;;;;;;17.10;56.90;;;;;;5074939;28;19927;-80
2022/11/18 00:41:19;;;;;;;;;;;17.00;56.80;;;;;;5074978;28;20268;-73
2022/11/18 00:43:45;;;;;;;;;;;17.10;56.90;;;;;;5074595;28;19923;-80
2022/11/18 00:46:11;;;;;;;;;;;17.10;56.90;;;;;;5074507;28;19942;-80
2022/11/18 00:48:37;;;;;;;;;;;17.10;56.90;;;;;;5074252;28;20089;-81
2022/11/18 00:51:07;;;;;;;;;;;17.10;56.90;;;;;;5074273;28;20176;-80
2022/11/18 00:53:33;;;;;;;;;;;17.10;56.90;;;;;;5074773;28;19920;-80
2022/11/18 00:55:58;;;;;;;;;;;17.10;56.90;;;;;;5074452;28;19931;-80
2022/11/18 00:58:23;;;;;;;;;;;17.10;56.80;;;;;;5074269;28;19924;-81
2022/11/18 01:00:50;;;;;;;;;;;17.10;56.90;;;;;;5074702;28;19927;-73
2022/11/18 01:03:16;;;;;;;;;;;17.10;56.90;;;;;;5092426;28;20318;-81
2022/11/18 01:05:42;;;;;;;;;;;17.10;56.90;;;;;;5074954;28;19920;-81
2022/11/18 01:08:08;;;;;;;;;;;17.10;56.90;;;;;;5092658;28;20383;-73
2022/11/18 01:10:34;;;;;;;;;;;17.10;56.90;;;;;;5074451;28;20396;-80
2022/11/18 01:13:31;;;;;;;;;;;17.10;56.80;;;;;;5074611;28;19943;-81
2022/11/18 01:15:53;;;;;;;;;;;17.10;56.80;;;;;;5074168;28;19923;-80
2022/11/18 01:18:20;;;;;;;;;;;17.00;56.80;;;;;;5074074;28;20371;-80
2022/11/18 01:20:46;;;;;;;;;;;17.00;56.80;;;;;;5074249;28;19920;-80
2022/11/18 01:23:12;;;;;;;;;;;17.00;56.80;;;;;;5074493;28;20003;-81
2022/11/18 01:25:39;;;;;;;;;;;17.00;56.80;;;;;;5092370;28;20006;-79
2022/11/18 01:28:04;;;;;;;;;;;17.00;56.80;;;;;;5092340;28;19931;-80
2022/11/18 01:30:33;;;;;;;;;;;17.00;56.90;;;;;;5092266;28;19920;-80
2022/11/18 01:32:59;;;;;;;;;;;17.00;56.80;;;;;;5074174;28;20015;-71
2022/11/18 01:35:25;;;;;;;;;;;17.00;56.90;;;;;;5074168;28;20033;-80
2022/11/18 01:37:50;;;;;;;;;;;17.00;57.00;;;;;;5092197;28;19924;-80
2022/11/18 01:40:16;;;;;;;;;;;16.90;57.00;;;;;;5074014;28;19920;-81
2022/11/18 01:42:41;;;;;;;;;;;16.90;57.10;;;;;;5074463;28;19989;-80
2022/11/18 01:47:53;;;;;;;;;;;16.90;57.20;;;;;;5090040;28;19913;-81
2022/11/18 01:50:20;;;;;;;;;;;16.80;57.20;;;;;;5088539;28;20371;-81
2022/11/18 01:52:46;;;;;;;;;;;16.80;57.30;;;;;;5088902;28;19959;-81
2022/11/18 01:55:13;;;;;;;;;;;16.80;57.30;;;;;;5088528;28;20386;-81
2022/11/18 01:57:40;;;;;;;;;;;16.80;57.30;;;;;;5088491;28;19920;-81
2022/11/18 02:00:06;;;;;;;;;;;16.80;57.30;;;;;;5088413;28;19929;-81
2022/11/18 02:02:32;;;;;;;;;;;16.90;57.20;;;;;;5088799;28;19927;-81
2022/11/18 02:04:59;;;;;;;;;;;17.30;56.70;;;;;;5088312;28;19973;-81
2022/11/18 02:07:25;;;;;;;;;;;17.80;55.70;;;;;;5088328;28;20446;-83
2022/11/18 02:09:52;;;;;;;;;;;18.20;54.60;;;;;;5088545;28;20353;-82
2022/11/18 02:12:18;;;;;;;;;;;18.60;53.80;;;;;;5105104;28;20376;-81
2022/11/18 02:14:45;;;;;;;;;;;19.10;52.80;;;;;;5088535;28;19924;-81
2022/11/18 02:17:30;;;;;;;;;;;19.70;51.40;;;;;;5088356;28;19931;-82
2022/11/18 02:25:30;;;;;;;;;;;21.80;47.00;;;;;;5127609;27;1861088;-81
2022/11/18 02:28:08;;;;;;;;;;;22.40;45.90;;;;;;5174439;27;20397;-71
2022/11/18 02:30:41;;;;;;;;;;;22.80;45.00;;;;;;5174659;27;20343;-81
2022/11/18 02:33:10;;;;;;;;;;;23.10;44.10;;;;;;5174325;27;20370;-82
2022/11/18 02:35:41;;;;;;;;;;;23.40;43.60;;;;;;5174307;27;19922;-81
2022/11/18 02:38:10;;;;;;;;;;;23.70;43.20;;;;;;5174836;27;20009;-81
2022/11/18 02:40:40;;;;;;;;;;;23.90;42.70;;;;;;5174098;27;19926;-80
2022/11/18 02:43:08;;;;;;;;;;;24.00;42.50;;;;;;5174316;27;20012;-80
2022/11/18 02:45:35;;;;;;;;;;;24.20;42.20;;;;;;5174148;27;19919;-74
2022/11/18 02:48:03;;;;;;;;;;;24.30;42.10;;;;;;5173938;27;19923;-81
2022/11/18 02:50:31;;;;;;;;;;;24.40;41.90;;;;;;5174054;27;19918;-82
2022/11/18 02:52:58;;;;;;;;;;;24.50;41.70;;;;;;5174185;27;20403;-81
2022/11/18 02:55:26;;;;;;;;;;;24.60;41.50;;;;;;5193055;27;19918;-81
2022/11/18 02:57:52;;;;;;;;;;;24.60;41.30;;;;;;5173806;27;20032;-82
2022/11/18 03:00:17;;;;;;;;;;;24.60;41.20;;;;;;5192633;27;19997;-81
2022/11/18 03:02:44;;;;;;;;;;;24.60;41.20;;;;;;5173711;27;20013;-82
2022/11/18 03:05:15;;;;;;;;;;;24.70;41.20;;;;;;5173684;27;19927;-83
2022/11/18 03:07:43;;;;;;;;;;;24.70;41.20;;;;;;5192422;27;19919;-83
2022/11/18 03:10:09;;;;;;;;;;;24.70;41.20;;;;;;5174005;27;19918;-81
2022/11/18 03:12:41;;;;;;;;;;;24.70;41.00;;;;;;5192534;27;19941;-81
2022/11/18 03:18:08;;;;;;;;;;;24.70;40.90;;;;;;5110299;27;19918;-81
2022/11/18 03:20:36;;;;;;;;;;;24.70;40.90;;;;;;5108686;28;19959;-81
2022/11/18 03:23:06;;;;;;;;;;;24.70;40.90;;;;;;5108740;28;19991;-81
2022/11/18 03:25:50;;;;;;;;;;;24.70;40.90;;;;;;5109176;28;19920;-81
2022/11/18 03:33:41;;;;;;;;;;;24.50;41.10;;;;;;5110245;27;19960;-82
2022/11/18 03:36:08;;;;;;;;;;;24.50;41.20;;;;;;5109185;28;20286;-80
2022/11/18 03:38:36;;;;;;;;;;;24.40;41.30;;;;;;5108805;28;19930;-81
2022/11/18 03:41:03;;;;;;;;;;;24.40;41.20;;;;;;5109036;28;19943;-82
2022/11/18 03:43:31;;;;;;;;;;;24.40;41.30;;;;;;5108802;28;20652;-74
2022/11/18 03:46:00;;;;;;;;;;;24.30;41.20;;;;;;5108694;28;20390;-82
2022/11/18 03:48:30;;;;;;;;;;;24.30;41.20;;;;;;5143331;27;19989;-82
2022/11/18 03:50:58;;;;;;;;;;;24.30;41.90;;;;;;5108843;28;20265;-82
2022/11/18 03:53:25;;;;;;;;;;;24.30;41.30;;;;;;5109769;28;19928;-81
2022/11/18 03:55:53;;;;;;;;;;;24.30;41.30;;;;;;5108560;28;19924;-82
2022/11/18 03:58:39;;;;;;;;;;;24.20;41.30;;;;;;5109748;28;20002;-81
2022/11/18 04:01:10;;;;;;;;;;;24.20;41.30;;;;;;5108276;28;19959;-82
2022/11/18 04:03:36;;;;;;;;;;;24.20;41.40;;;;;;5109541;28;20299;-82
2022/11/18 04:06:08;;;;;;;;;;;24.10;41.40;;;;;;5108739;28;19920;-83
2022/11/18 04:08:35;;;;;;;;;;;24.10;41.40;;;;;;5109664;28;19927;-83
2022/11/18 04:11:07;;;;;;;;;;;24.10;41.40;;;;;;5109625;28;20015;-83
2022/11/18 04:13:35;;;;;;;;;;;24.10;41.40;;;;;;5109776;28;20322;-83
2022/11/18 04:16:01;;;;;;;;;;;24.10;41.30;;;;;;5108358;28;19920;-82
2022/11/18 04:18:26;;;;;;;;;;;24.10;41.40;;;;;;5109440;28;19924;-82
2022/11/18 04:20:52;;;;;;;;;;;24.10;41.50;;;;;;5109360;28;20295;-82
2022/11/18 04:23:18;;;;;;;;;;;24.00;41.70;;;;;;5109329;28;20409;-81
2022/11/18 04:25:43;;;;;;;;;;;24.00;41.50;;;;;;5108182;28;19920;-81
2022/11/18 04:28:09;;;;;;;;;;;23.80;41.50;;;;;;5142620;27;20425;-81
2022/11/18 04:30:35;;;;;;;;;;;23.90;41.50;;;;;;5107808;28;19920;-81
2022/11/18 04:33:00;;;;;;;;;;;24.00;41.60;;;;;;5124862;28;19923;-81
2022/11/18 04:35:26;;;;;;;;;;;24.00;41.60;;;;;;5111092;28;19919;-81
2022/11/18 04:37:52;;;;;;;;;;;24.00;41.60;;;;;;5129592;28;19989;-81
2022/11/18 04:40:17;;;;;;;;;;;24.00;41.60;;;;;;5129415;27;20378;-82
2022/11/18 04:42:43;;;;;;;;;;;24.10;41.60;;;;;;5110453;28;20264;-81
2022/11/18 04:45:08;;;;;;;;;;;24.10;41.50;;;;;;5096947;28;19931;-81
2022/11/18 04:47:34;;;;;;;;;;;24.10;41.50;;;;;;5115706;28;20018;-82
2022/11/18 04:49:59;;;;;;;;;;;24.10;41.50;;;;;;5115531;28;19965;-81
2022/11/18 04:52:25;;;;;;;;;;;24.10;41.50;;;;;;5097198;28;19928;-81
2022/11/18 04:54:50;;;;;;;;;;;24.10;41.50;;;;;;5097579;28;20024;-80
2022/11/18 04:57:16;;;;;;;;;;;24.10;42.20;;;;;;5115789;28;20348;-81
2022/11/18 04:59:41;;;;;;;;;;;23.70;41.20;;;;;;5097536;28;20014;-81
2022/11/18 05:02:07;;;;;;;;;;;24.10;41.30;;;;;;5097080;28;19923;-73
2022/11/18 05:04:33;;;;;;;;;;;24.10;41.40;;;;;;5097345;28;19920;-81
2022/11/18 05:06:59;;;;;;;;;;;24.10;41.40;;;;;;5097039;28;20399;-83
2022/11/18 05:09:25;;;;;;;;;;;24.10;41.30;;;;;;5097370;28;19920;-82
2022/11/18 05:14:36;;;;;;;;;;;24.00;41.20;;;;;;5115079;28;19920;-81
2022/11/18 05:17:03;;;;;;;;;;;24.00;41.30;;;;;;5097027;28;19988;-81
2022/11/18 05:19:28;;;;;;;;;;;24.10;41.30;;;;;;5096759;28;19965;-82
2022/11/18 05:21:54;;;;;;;;;;;24.10;41.20;;;;;;5096894;28;19923;-81
2022/11/18 05:24:19;;;;;;;;;;;24.10;41.20;;;;;;5096808;28;20260;-81
2022/11/18 05:26:45;;;;;;;;;;;24.10;41.10;;;;;;5096704;28;19962;-80
2022/11/18 05:29:11;;;;;;;;;;;24.10;41.10;;;;;;5114964;28;19920;-73
2022/11/18 05:31:37;;;;;;;;;;;24.10;41.00;;;;;;5092882;28;19924;-81
2022/11/18 05:34:03;;;;;;;;;;;24.10;41.10;;;;;;5094390;28;19942;-82
2022/11/18 05:36:28;;;;;;;;;;;24.10;41.00;;;;;;5093155;28;20385;-76
2022/11/18 05:38:57;;;;;;;;;;;24.10;41.10;;;;;;5093466;28;19924;-79
2022/11/18 05:44:07;;;;;;;;;;;24.00;41.00;;;;;;5093139;28;19920;-80
2022/11/18 05:46:33;;;;;;;;;;;24.00;41.00;;;;;;5092861;28;20381;-81
2022/11/18 05:48:59;;;;;;;;;;;23.90;41.10;;;;;;5094315;28;19926;-72
2022/11/18 05:51:24;;;;;;;;;;;23.90;41.20;;;;;;5093017;28;20271;-80
2022/11/18 05:53:51;;;;;;;;;;;23.90;41.20;;;;;;5092714;28;20444;-81
2022/11/18 05:59:02;;;;;;;;;;;23.80;41.20;;;;;;5124889;27;1937440;-80
2022/11/18 06:01:47;;;;;;;;;;;23.80;41.30;;;;;;5174385;27;19918;-81
2022/11/18 06:04:15;;;;;;;;;;;23.80;41.30;;;;;;5192896;27;20278;-81
2022/11/18 06:06:41;;;;;;;;;;;23.70;41.20;;;;;;5174401;27;19945;-81
2022/11/18 06:09:07;;;;;;;;;;;23.80;41.20;;;;;;5174583;27;19922;-81
2022/11/18 06:11:37;;;;;;;;;;;23.80;41.20;;;;;;5174596;27;19919;-72
2022/11/18 06:14:05;;;;;;;;;;;23.80;41.20;;;;;;5174109;27;20430;-81
2022/11/18 06:16:31;;;;;;;;;;;23.80;41.10;;;;;;5174200;27;19954;-80
2022/11/18 06:18:57;;;;;;;;;;;23.80;41.10;;;;;;5193323;27;20348;-72
2022/11/18 06:21:23;;;;;;;;;;;23.80;41.00;;;;;;5174034;27;19954;-73
2022/11/18 06:23:48;;;;;;;;;;;23.80;40.90;;;;;;5174049;27;19919;-81
2022/11/18 06:26:15;;;;;;;;;;;23.80;40.80;;;;;;5173921;27;19978;-71
2022/11/18 06:28:42;;;;;;;;;;;23.80;40.80;;;;;;5192524;27;19923;-81
2022/11/18 06:31:08;;;;;;;;;;;23.90;40.80;;;;;;5192886;27;19918;-81
2022/11/18 06:33:33;;;;;;;;;;;23.90;40.80;;;;;;5173756;27;19918;-73
2022/11/18 06:35:59;;;;;;;;;;;23.90;40.70;;;;;;5174099;27;19919;-78
2022/11/18 06:38:24;;;;;;;;;;;23.90;40.70;;;;;;5168634;27;19922;-79
2022/11/18 06:40:50;;;;;;;;;;;24.00;40.70;;;;;;5165679;27;19918;-71
2022/11/18 06:43:47;;;;;;;;;;;23.90;40.80;;;;;;5155829;27;20013;-77
2022/11/18 06:48:48;;;;;;;;;;;23.80;41.00;;;;;;5169192;27;19923;-67
2022/11/18 06:51:13;;;;;;;;;;;23.80;41.20;;;;;;5179136;27;20009;-66
2022/11/18 06:53:39;;;;;;;;;;;23.70;41.30;;;;;;5169746;27;19918;-79
2022/11/18 06:56:05;;;;;;;;;;;23.60;41.40;;;;;;5190005;27;19925;-78
2022/11/18 06:58:31;;;;;;;;;;;23.60;41.50;;;;;;5172151;27;19972;-79
2022/11/18 07:00:56;;;;;;;;;;;23.60;41.60;;;;;;5179731;27;19927;-78
2022/11/18 07:03:22;;;;;;;;;;;23.60;41.50;;;;;;5175350;27;19951;-79
2022/11/18 07:05:47;;;;;;;;;;;23.70;41.40;;;;;;5168707;27;19927;-78
2022/11/18 07:08:13;;;;;;;;;;;23.80;41.50;;;;;;5136550;27;19955;-83
2022/11/18 07:10:38;;;;;;;;;;;23.80;41.40;;;;;;5138849;27;20176;-75
2022/11/18 07:13:04;;;;;;;;;;;23.90;41.20;;;;;;5141123;27;19919;-82
2022/11/18 07:15:29;;;;;;;;;;;24.00;41.20;;;;;;5141799;27;19946;-79
2022/11/18 07:17:55;;;;;;;;;;;23.40;40.60;;;;;;5140978;27;19931;-80
2022/11/18 07:20:20;;;;;;;;;;;24.30;40.60;;;;;;5144767;27;20013;-83
2022/11/18 07:22:46;;;;;;;;;;;25.50;41.00;;;;;;5139078;27;20326;-79
2022/11/18 07:25:11;;;;;;;;;;;24.40;40.30;;;;;;5137970;27;19966;-78
2022/11/18 07:27:37;;;;;;;;;;;24.40;40.30;;;;;;5141084;27;19923;-78
2022/11/18 07:30:03;;;;;;;;;;;24.30;40.20;;;;;;5138305;27;19919;-78
2022/11/18 07:32:28;;;;;;;;;;;24.30;40.30;;;;;;5142042;27;19919;-79
2022/11/18 07:34:54;;;;;;;;;;;24.20;40.30;;;;;;5145991;27;19919;-77
2022/11/18 07:37:19;;;;;;;;;;;24.20;40.30;;;;;;5157754;27;19967;-75
2022/11/18 07:39:45;;;;;;;;;;;24.00;40.60;;;;;;5142225;27;20850;-78
2022/11/18 07:42:10;;;;;;;;;;;24.00;41.00;;;;;;5140203;27;20596;-81
2022/11/18 07:44:36;;;;;;;;;;;23.90;41.20;;;;;;5143537;27;19931;-80
2022/11/18 07:47:01;;;;;;;;;;;23.90;41.40;;;;;;5158432;27;19923;-79
2022/11/18 07:49:27;;;;;;;;;;;23.90;41.50;;;;;;5143786;27;19922;-82
2022/11/18 07:51:53;;;;;;;;;;;23.90;41.70;;;;;;5145343;27;20445;-84
2022/11/18 07:54:18;;;;;;;;;;;23.90;41.70;;;;;;5160133;27;19923;-80
2022/11/18 07:56:44;;;;;;;;;;;23.90;41.80;;;;;;5145449;27;19930;-79
2022/11/18 07:59:10;;;;;;;;;;;23.90;41.80;;;;;;5143674;27;19926;-72
2022/11/18 08:01:35;;;;;;;;;;;24.00;42.00;;;;;;5143433;27;19927;-77
2022/11/18 08:04:05;;;;;;;;;;;23.90;42.00;;;;;;5144033;27;19923;-77
2022/11/18 08:06:31;;;;;;;;;;;23.90;42.10;;;;;;5145893;27;19922;-82
2022/11/18 08:08:57;;;;;;;;;;;23.90;41.80;;;;;;5137236;27;20373;-78
2022/11/18 08:11:22;;;;;;;;;;;23.70;41.40;;;;;;5156130;27;19936;-80
2022/11/18 08:13:48;;;;;;;;;;;23.50;41.50;;;;;;5145183;27;19923;-78
2022/11/18 08:16:14;;;;;;;;;;;23.40;41.70;;;;;;5156036;27;19922;-79
2022/11/18 08:18:40;;;;;;;;;;;24.40;42.60;;;;;;5143118;27;20001;-82
2022/11/18 08:21:06;;;;;;;;;;;23.50;42.10;;;;;;5156115;27;20542;-74
2022/11/18 08:23:31;;;;;;;;;;;23.50;41.70;;;;;;5151444;27;19930;-79
2022/11/18 08:26:01;;;;;;;;;;;23.80;41.50;;;;;;5151408;27;19927;-75
2022/11/18 08:28:27;;;;;;;;;;;23.90;41.20;;;;;;5134806;27;19927;-70
2022/11/18 08:30:52;;;;;;;;;;;24.00;41.10;;;;;;5133265;27;19942;-75
2022/11/18 08:33:18;;;;;;;;;;;24.00;41.00;;;;;;5141963;27;19929;-75
2022/11/18 08:35:43;;;;;;;;;;;24.10;41.00;;;;;;5139780;27;19923;-78
2022/11/18 08:38:09;;;;;;;;;;;24.10;40.90;;;;;;5133953;27;19934;-79
2022/11/18 08:40:34;;;;;;;;;;;24.20;40.80;;;;;;5140699;27;19918;-78
2022/11/18 08:43:00;;;;;;;;;;;24.30;40.80;;;;;;5145130;27;19927;-79
2022/11/18 08:45:25;;;;;;;;;;;24.30;40.60;;;;;;5137933;27;19984;-75
2022/11/18 08:47:51;;;;;;;;;;;24.30;40.60;;;;;;5150966;27;19930;-75
2022/11/18 08:50:16;;;;;;;;;;;24.30;40.70;;;;;;5127711;27;19981;-74
2022/11/18 08:52:42;;;;;;;;;;;24.30;40.60;;;;;;5152290;27;19922;-76
2022/11/18 08:55:07;;;;;;;;;;;24.40;40.70;;;;;;5148751;27;20302;-79
2022/11/18 08:57:33;;;;;;;;;;;24.30;40.60;;;;;;5134903;27;19923;-67
2022/11/18 08:59:58;;;;;;;;;;;24.30;40.70;;;;;;5139839;27;19923;-78
2022/11/18 09:02:24;;;;;;;;;;;24.20;40.90;;;;;;5137069;27;19930;-71
2022/11/18 09:04:50;;;;;;;;;;;24.10;41.00;;;;;;5141245;27;20035;-76
2022/11/18 09:07:16;;;;;;;;;;;24.10;41.10;;;;;;5132243;27;19923;-81
2022/11/18 09:09:42;;;;;;;;;;;24.00;41.30;;;;;;5138990;27;20488;-68
2022/11/18 09:12:08;;;;;;;;;;;23.90;41.30;;;;;;5157955;27;19922;-68
2022/11/18 09:14:34;;;;;;;;;;;23.90;41.40;;;;;;5143214;27;19918;-77
2022/11/18 09:17:00;;;;;;;;;;;23.80;41.50;;;;;;5144015;27;20504;-74
2022/11/18 09:19:25;;;;;;;;;;;23.80;41.50;;;;;;5137871;27;19923;-76
2022/11/18 09:21:51;;;;;;;;;;;23.80;41.50;;;;;;5146026;27;19918;-74
2022/11/18 09:24:17;;;;;;;;;;;23.80;42.20;;;;;;5133254;27;19927;-75
2022/11/18 09:26:42;;;;;;;;;;;23.80;42.20;;;;;;5139710;27;19927;-77
2022/11/18 09:29:10;;;;;;;;;;;23.80;41.50;;;;;;5143022;27;19966;-76
2022/11/18 09:31:36;;;;;;;;;;;23.80;41.50;;;;;;5138268;27;19930;-76
2022/11/18 09:34:01;;;;;;;;;;;23.80;41.40;;;;;;5137581;27;19929;-79
2022/11/18 09:36:27;;;;;;;;;;;23.80;41.50;;;;;;5144853;27;19975;-80
2022/11/18 09:38:53;;;;;;;;;;;23.70;41.50;;;;;;5138156;27;20182;-80
2022/11/18 09:41:38;;;;;;;;;;;23.70;41.70;;;;;;5145185;27;19919;-80
2022/11/18 09:46:55;;;;;;;;;;;23.50;42.00;;;;;;5094766;27;20312;-76
2022/11/18 09:49:30;;;;;;;;;;;23.50;42.10;;;;;;5079202;28;20311;-67
2022/11/18 09:51:56;;;;;;;;;;;23.60;42.20;;;;;;5084842;28;20028;-79
2022/11/18 09:54:23;;;;;;;;;;;23.60;42.30;;;;;;5087843;28;19959;-74
2022/11/18 09:56:50;;;;;;;;;;;23.70;42.20;;;;;;5084475;28;19920;-70
2022/11/18 09:59:19;;;;;;;;;;;23.70;42.10;;;;;;5082120;28;20384;-70
2022/11/18 10:01:44;;;;;;;;;;;23.80;41.90;;;;;;5085299;28;19927;-72
2022/11/18 10:04:15;;;;;;;;;;;23.90;41.80;;;;;;5116190;27;19928;-70
2022/11/18 10:06:40;;;;;;;;;;;24.10;41.70;;;;;;5084634;28;19924;-77
2022/11/18 10:09:25;;;;;;;;;;;24.20;41.50;;;;;;5090519;28;19977;-71
2022/11/18 10:17:27;;;;;;;;;;;24.30;41.20;;;;;;5067141;28;19927;-74
2022/11/18 10:22:40;;;;;;;;;;;24.20;41.40;;;;;;5049961;28;19916;-71
2022/11/18 10:25:11;;;;;;;;;;;24.10;41.50;;;;;;5031877;28;19940;-70
2022/11/18 10:27:38;;;;;;;;;;;24.00;41.80;;;;;;5049358;28;20034;-63
2022/11/18 10:30:10;;;;;;;;;;;23.80;42.20;;;;;;5032308;28;19975;-72
2022/11/18 10:32:51;;;;;;;;;;;23.70;42.40;;;;;;5032588;28;19928;-67
2022/11/18 10:35:25;;;;;;;;;;;23.60;42.60;;;;;;5031828;28;19932;-74
2022/11/18 10:38:14;;;;;;;;;;;23.50;42.60;;;;;;5050895;28;19925;-74
2022/11/18 10:40:59;;;;;;;;;;;23.50;42.50;;;;;;5049116;28;20043;-73
2022/11/18 10:43:44;;;;;;;;;;;23.40;42.50;;;;;;5030789;28;19924;-76
2022/11/18 10:46:21;;;;;;;;;;;23.50;42.50;;;;;;5032378;28;19931;-67
2022/11/18 10:48:47;;;;;;;;;;;25.30;43.30;;;;;;5023777;28;19959;-74
2022/11/18 10:51:21;;;;;;;;;;;23.50;42.20;;;;;;5030676;28;20357;-69
2022/11/18 10:53:47;;;;;;;;;;;23.50;42.30;;;;;;5048940;28;19931;-74
2022/11/18 10:56:14;;;;;;;;;;;25.20;43.10;;;;;;5034258;28;19925;-71
2022/11/18 10:58:41;;;;;;;;;;;23.60;42.10;;;;;;5030209;28;19982;-69
2022/11/18 11:01:18;;;;;;;;;;;23.70;41.90;;;;;;5035384;28;19972;-71
2022/11/18 11:03:54;;;;;;;;;;;23.90;41.80;;;;;;5048721;28;19925;-78
2022/11/18 11:06:28;;;;;;;;;;;23.90;41.70;;;;;;5036101;28;19929;-74
2022/11/18 11:08:55;;;;;;;;;;;23.90;41.50;;;;;;5052739;28;20250;-77
2022/11/18 11:11:25;;;;;;;;;;;24.00;41.50;;;;;;5034750;28;19952;-76
2022/11/18 11:13:55;;;;;;;;;;;24.00;41.30;;;;;;5036319;28;19922;-73
2022/11/18 11:16:22;;;;;;;;;;;24.00;41.20;;;;;;5048781;28;19944;-73
2022/11/18 11:18:50;;;;;;;;;;;24.00;41.40;;;;;;5034018;28;20374;-71
2022/11/18 11:21:17;;;;;;;;;;;24.10;41.30;;;;;;5049844;28;19932;-73
2022/11/18 11:23:44;;;;;;;;;;;24.00;41.30;;;;;;5050788;28;19925;-74
2022/11/18 11:29:00;;;;;;;;;;;23.90;41.60;;;;;;5079473;27;19927;-68
2022/11/18 11:31:36;;;;;;;;;;;23.90;41.50;;;;;;5057972;28;19960;-72
2022/11/18 11:34:21;;;;;;;;;;;23.90;41.70;;;;;;5053541;28;20491;-73
2022/11/18 11:36:59;;;;;;;;;;;23.90;41.80;;;;;;5043182;28;19928;-73
2022/11/18 11:39:44;;;;;;;;;;;23.80;41.90;;;;;;5043379;28;19938;-73
2022/11/18 11:42:26;;;;;;;;;;;23.70;41.70;;;;;;5043660;28;20307;-73
2022/11/18 11:45:11;;;;;;;;;;;23.70;41.60;;;;;;5047002;28;19937;-73
2022/11/18 11:50:28;;;;;;;;;;;23.70;41.60;;;;;;5053096;27;20539;-68
2022/11/18 11:55:56;;;;;;;;;;;23.70;42.30;;;;;;5075120;27;19924;-74
2022/11/18 11:58:42;;;;;;;;;;;23.70;41.60;;;;;;5074059;28;19931;-74
2022/11/18 12:01:18;;;;;;;;;;;23.90;41.60;;;;;;5070028;28;20283;-74
2022/11/18 12:03:49;;;;;;;;;;;24.10;41.30;;;;;;5071598;28;19925;-70
2022/11/18 12:06:15;;;;;;;;;;;24.00;41.10;;;;;;5087755;28;20399;-73
2022/11/18 12:08:51;;;;;;;;;;;24.00;41.10;;;;;;5069582;28;19925;-79
2022/11/18 12:11:28;;;;;;;;;;;24.00;41.10;;;;;;5073312;28;19920;-74
2022/11/18 12:14:05;;;;;;;;;;;24.10;41.20;;;;;;5075128;28;20330;-71
2022/11/18 12:19:11;;;;;;;;;;;24.20;41.00;;;;;;5084906;27;1856336;-74
2022/11/18 12:27:13;;;;;;;;;;;24.20;40.80;;;;;;5055486;28;19917;-74
2022/11/18 12:32:44;;;;;;;;;;;24.10;40.70;;;;;;5070990;28;20573;-73
2022/11/18 12:46:35;;;;;;;;;;;24.70;40.40;;;;;;5070997;27;19931;-74
2022/11/18 12:49:20;;;;;;;;;;;25.40;39.50;;;;;;5052005;28;20289;-78
2022/11/18 12:51:46;;;;;;;;;;;25.70;39.00;;;;;;5085560;28;19920;-75
2022/11/18 12:54:21;;;;;;;;;;;26.10;38.50;;;;;;5053083;28;19932;-74
2022/11/18 12:56:48;;;;;;;;;;;26.40;38.00;;;;;;5052404;28;20024;-72
2022/11/18 12:59:13;;;;;;;;;;;26.70;37.60;;;;;;5057190;28;19929;-70
2022/11/18 13:01:39;;;;;;;;;;;26.90;37.30;;;;;;5057861;28;20353;-74
2022/11/18 13:04:07;;;;;;;;;;;26.80;36.70;;;;;;5092768;28;19928;-76
2022/11/18 13:06:34;;;;;;;;;;;27.40;36.50;;;;;;5060965;28;19925;-72
2022/11/18 13:09:01;;;;;;;;;;;27.40;36.30;;;;;;5052725;28;19931;-70
2022/11/18 13:11:59;;;;;;;;;;;27.40;36.20;;;;;;5087224;28;19963;-71
2022/11/18 13:17:56;;;;;;;;;;;27.80;35.30;;;;;;5054310;28;19928;-79
2022/11/18 13:20:26;;;;;;;;;;;27.70;35.60;;;;;;5057296;28;20387;-71
2022/11/18 13:25:41;;;;;;;;;;;27.70;35.90;;;;;;5061006;28;19979;-71
2022/11/18 13:30:53;;;;;;;;;;;27.90;35.00;;;;;;5065404;28;19917;-78
2022/11/18 13:33:18;;;;;;;;;;;27.90;35.20;;;;;;5063638;28;19921;-78
2022/11/18 13:35:44;;;;;;;;;;;27.90;35.20;;;;;;5061650;28;20466;-76
2022/11/18 13:38:20;;;;;;;;;;;27.80;35.40;;;;;;5071801;28;20497;-77
2022/11/18 13:41:22;;;;;;;;;;;27.60;35.50;;;;;;5082519;28;19924;-74
2022/11/18 13:43:32;;;;;;;;;;;27.60;35.70;;;;;;5051539;28;19931;-66
2022/11/18 13:45:59;;;;;;;;;;;27.30;35.50;;;;;;5063203;28;20196;-71
2022/11/18 13:48:25;;;;;;;;;;;26.90;35.60;;;;;;5081051;28;19928;-70
2022/11/18 13:50:53;;;;;;;;;;;26.60;36.30;;;;;;5065810;28;19998;-69
2022/11/18 13:53:37;;;;;;;;;;;26.30;36.70;;;;;;5066180;28;20380;-74
2022/11/18 13:56:04;;;;;;;;;;;26.10;37.10;;;;;;5084034;28;19921;-71
2022/11/18 13:58:35;;;;;;;;;;;25.80;37.30;;;;;;5070074;28;19921;-74
2022/11/18 14:01:03;;;;;;;;;;;25.60;37.50;;;;;;5057623;28;19924;-70
2022/11/18 14:03:33;;;;;;;;;;;25.30;37.80;;;;;;5074724;28;19921;-70
2022/11/18 14:05:58;;;;;;;;;;;25.00;38.20;;;;;;5075630;28;19920;-69
2022/11/18 14:08:29;;;;;;;;;;;24.80;38.60;;;;;;5076832;28;19974;-70
2022/11/18 14:10:54;;;;;;;;;;;24.60;39.00;;;;;;5057938;28;20011;-70
2022/11/18 14:19:00;;;;;;;;;;;24.10;39.40;;;;;;5098596;27;20124;-71
2022/11/18 14:21:27;;;;;;;;;;;24.10;39.50;;;;;;5082311;28;19935;-71
2022/11/18 14:23:53;;;;;;;;;;;24.20;39.40;;;;;;5107725;28;19994;-71
2022/11/18 14:26:35;;;;;;;;;;;24.40;39.20;;;;;;5077337;28;20370;-71
2022/11/18 14:29:02;;;;;;;;;;;24.50;38.80;;;;;;5056463;28;20430;-71
2022/11/18 14:31:29;;;;;;;;;;;24.70;38.50;;;;;;5084532;28;20250;-71
2022/11/18 14:34:14;;;;;;;;;;;24.90;39.00;;;;;;5077677;28;19931;-71
2022/11/18 14:36:40;;;;;;;;;;;25.00;38.00;;;;;;5108113;28;19973;-71
2022/11/18 14:39:25;;;;;;;;;;;25.40;37.60;;;;;;5110988;28;20392;-71
2022/11/18 14:41:51;;;;;;;;;;;25.50;37.30;;;;;;5109718;27;19921;-71
2022/11/18 14:44:17;;;;;;;;;;;25.70;37.00;;;;;;5109290;28;20437;-71
2022/11/18 14:46:48;;;;;;;;;;;25.80;36.70;;;;;;5077050;28;20382;-71
2022/11/18 14:49:16;;;;;;;;;;;25.90;36.50;;;;;;5074315;28;19926;-70
2022/11/18 14:51:42;;;;;;;;;;;26.00;36.30;;;;;;5076094;28;19924;-71
2022/11/18 14:54:16;;;;;;;;;;;26.00;36.10;;;;;;5076112;28;20418;-71
2022/11/18 14:56:42;;;;;;;;;;;26.00;36.10;;;;;;5077388;28;19928;-72
2022/11/18 14:59:15;;;;;;;;;;;25.90;36.10;;;;;;5075228;28;19925;-71
2022/11/18 15:01:42;;;;;;;;;;;25.90;36.10;;;;;;5073148;28;19924;-72
2022/11/18 15:04:07;;;;;;;;;;;25.70;36.20;;;;;;5073468;28;20023;-71
2022/11/18 15:06:33;;;;;;;;;;;25.60;36.10;;;;;;5073911;28;20059;-71
2022/11/18 15:08:59;;;;;;;;;;;25.50;36.30;;;;;;5072405;28;20311;-72
2022/11/18 15:11:24;;;;;;;;;;;25.30;36.40;;;;;;5073274;28;19928;-72
2022/11/18 15:13:50;;;;;;;;;;;25.20;36.50;;;;;;5071887;28;19947;-71
2022/11/18 15:16:17;;;;;;;;;;;25.00;36.60;;;;;;5075768;28;20399;-71
2022/11/18 15:18:43;;;;;;;;;;;24.90;36.80;;;;;;5070737;28;20295;-71
2022/11/18 15:21:09;;;;;;;;;;;24.80;36.80;;;;;;5074078;28;19921;-71
2022/11/18 15:23:35;;;;;;;;;;;24.70;36.90;;;;;;5105898;28;20003;-70
2022/11/18 15:26:01;;;;;;;;;;;24.70;36.90;;;;;;5074809;28;19999;-71
2022/11/18 15:28:27;;;;;;;;;;;24.70;36.80;;;;;;5070563;28;19925;-68
2022/11/18 15:30:52;;;;;;;;;;;24.70;36.50;;;;;;5062415;28;19920;-72
2022/11/18 15:33:18;;;;;;;;;;;24.70;36.20;;;;;;5061541;28;19928;-72
2022/11/18 15:35:43;;;;;;;;;;;24.70;36.10;;;;;;5094448;28;20097;-72
2022/11/18 15:38:10;;;;;;;;;;;24.90;36.00;;;;;;5065259;28;20023;-71
2022/11/18 15:40:37;;;;;;;;;;;25.00;35.80;;;;;;5064349;28;19920;-71
2022/11/18 15:43:03;;;;;;;;;;;25.10;35.60;;;;;;5065047;28;20360;-72
2022/11/18 15:45:28;;;;;;;;;;;25.20;35.50;;;;;;5062790;28;19920;-71
2022/11/18 15:47:54;;;;;;;;;;;25.20;35.30;;;;;;5071237;28;20407;-69
2022/11/18 15:50:19;;;;;;;;;;;25.40;35.40;;;;;;5064031;28;20284;-71